Time;durP1;ratioP1;P1;durP2;ratioP2;P2;SDS_P1;SDS_P2;PMS_P1;PMS_P2;Temp;Humidity;BMP_temperature;BMP_pressure;BME280_temperature;BME280_humidity;BME280_pressure;Samples;Min_cycle;Max_cycle;Signal;HPM_P1;HPM_P2
2021/01/12 00:02:18;;;;;;;22.92;12.55;;;;;;;;;;5053653;28;20049;-71
2021/01/12 00:04:45;;;;;;;20.27;11.90;;;;;;;;;;5052609;28;20053;-71
2021/01/12 00:07:12;;;;;;;20.52;12.13;;;;;;;;;;5053615;28;20053;-71
2021/01/12 00:09:39;;;;;;;21.00;11.23;;;;;;;;;;5053546;28;20048;-71
2021/01/12 00:12:06;;;;;;;22.52;11.73;;;;;;;;;;5052581;28;20098;-71
2021/01/12 00:14:33;;;;;;;20.90;11.98;;;;;;;;;;5053380;28;20422;-71
2021/01/12 00:17:00;;;;;;;22.63;12.23;;;;;;;;;;5053315;28;20128;-71
2021/01/12 00:19:26;;;;;;;22.77;11.88;;;;;;;;;;5053368;28;20424;-71
2021/01/12 00:21:53;;;;;;;21.98;12.07;;;;;;;;;;5035801;28;20052;-71
2021/01/12 00:24:19;;;;;;;22.52;13.00;;;;;;;;;;5053525;28;20131;-71
2021/01/12 00:26:46;;;;;;;19.63;11.57;;;;;;;;;;5053233;28;20550;-71
2021/01/12 00:29:12;;;;;;;19.27;11.32;;;;;;;;;;5052120;28;20091;-71
2021/01/12 00:31:42;;;;;;;21.10;12.60;;;;;;;;;;5052962;28;20049;-71
2021/01/12 00:34:09;;;;;;;20.42;11.57;;;;;;;;;;5053258;28;20049;-71
2021/01/12 00:36:40;;;;;;;24.25;13.15;;;;;;;;;;5052819;28;20467;-71
2021/01/12 00:39:07;;;;;;;23.25;12.60;;;;;;;;;;5052085;28;20051;-71
2021/01/12 00:41:34;;;;;;;20.13;10.98;;;;;;;;;;5038951;28;20111;-71
2021/01/12 00:44:01;;;;;;;20.20;11.02;;;;;;;;;;5033279;28;20049;-71
2021/01/12 00:46:27;;;;;;;19.75;11.23;;;;;;;;;;5038788;28;20083;-71
2021/01/12 00:48:53;;;;;;;23.75;12.45;;;;;;;;;;5052839;28;20040;-71
2021/01/12 00:51:20;;;;;;;20.10;11.13;;;;;;;;;;5052867;28;20084;-71
2021/01/12 00:53:46;;;;;;;21.02;11.95;;;;;;;;;;5052804;28;20049;-71
2021/01/12 00:56:17;;;;;;;20.40;12.18;;;;;;;;;;5052497;28;20053;-71
2021/01/12 00:58:43;;;;;;;20.60;11.57;;;;;;;;;;5052608;28;20100;-71
2021/01/12 01:01:09;;;;;;;21.23;11.55;;;;;;;;;;5052764;28;20508;-71
2021/01/12 01:03:35;;;;;;;18.73;10.95;;;;;;;;;;5052516;28;20057;-71
2021/01/12 01:06:05;;;;;;;19.10;10.70;;;;;;;;;;5052372;28;20057;-71
2021/01/12 01:08:31;;;;;;;20.02;11.50;;;;;;;;;;5036615;28;20050;-71
2021/01/12 01:10:57;;;;;;;22.42;12.27;;;;;;;;;;5032846;28;20049;-71
2021/01/12 01:13:24;;;;;;;19.58;11.20;;;;;;;;;;5030986;28;20111;-71
2021/01/12 01:15:50;;;;;;;18.13;11.07;;;;;;;;;;5030868;28;20092;-71
2021/01/12 01:18:16;;;;;;;20.25;11.88;;;;;;;;;;5032381;28;20137;-71
2021/01/12 01:20:42;;;;;;;20.83;10.13;;;;;;;;;;5032345;28;20057;-71
2021/01/12 01:23:08;;;;;;;21.65;12.02;;;;;;;;;;5032426;28;20076;-71
2021/01/12 01:25:34;;;;;;;21.85;11.98;;;;;;;;;;5031955;28;20053;-71
2021/01/12 01:28:00;;;;;;;19.75;11.63;;;;;;;;;;5032305;28;20053;-71
2021/01/12 01:30:26;;;;;;;20.15;11.82;;;;;;;;;;5032056;28;20077;-71
2021/01/12 01:32:52;;;;;;;20.67;10.75;;;;;;;;;;5032348;28;20049;-71
2021/01/12 01:35:19;;;;;;;19.27;11.52;;;;;;;;;;5031786;28;20045;-71
2021/01/12 01:37:54;;;;;;;19.00;10.55;;;;;;;;;;5032439;28;20049;-71
2021/01/12 01:40:21;;;;;;;19.17;10.70;;;;;;;;;;5032063;28;20563;-71
2021/01/12 01:42:48;;;;;;;20.80;11.65;;;;;;;;;;5032153;28;20095;-71
2021/01/12 01:45:14;;;;;;;18.05;10.70;;;;;;;;;;5030473;28;20096;-71
2021/01/12 01:47:43;;;;;;;15.98;9.80;;;;;;;;;;5031943;28;20054;-71
2021/01/12 01:50:13;;;;;;;19.67;10.40;;;;;;;;;;5031942;28;20087;-71
2021/01/12 01:52:43;;;;;;;16.27;9.30;;;;;;;;;;5030791;28;20053;-71
2021/01/12 01:55:10;;;;;;;20.85;10.75;;;;;;;;;;5030688;28;20060;-71
2021/01/12 01:57:36;;;;;;;16.75;10.25;;;;;;;;;;5014226;28;20053;-71
2021/01/12 02:00:04;;;;;;;18.52;9.77;;;;;;;;;;5031863;28;20049;-71
2021/01/12 02:02:30;;;;;;;18.52;9.88;;;;;;;;;;5031672;28;20119;-71
2021/01/12 02:04:59;;;;;;;16.08;9.35;;;;;;;;;;5030854;28;20132;-71
2021/01/12 02:07:25;;;;;;;18.00;10.48;;;;;;;;;;5030498;28;20484;-71
2021/01/12 02:09:53;;;;;;;15.80;8.82;;;;;;;;;;5014196;28;20046;-71
2021/01/12 02:12:27;;;;;;;13.88;8.13;;;;;;;;;;5038301;28;20045;-71
2021/01/12 02:14:53;;;;;;;13.02;7.25;;;;;;;;;;5030586;28;20487;-71
2021/01/12 02:17:19;;;;;;;14.48;8.40;;;;;;;;;;5031390;28;20099;-71
2021/01/12 02:19:45;;;;;;;14.95;8.48;;;;;;;;;;5031654;28;20096;-71
2021/01/12 02:22:19;;;;;;;13.90;8.18;;;;;;;;;;5014165;28;20097;-70
2021/01/12 02:24:45;;;;;;;14.25;8.05;;;;;;;;;;5031606;28;20057;-71
2021/01/12 02:27:11;;;;;;;14.07;8.30;;;;;;;;;;5032828;28;20061;-71
2021/01/12 02:29:37;;;;;;;12.70;7.55;;;;;;;;;;5052945;28;20137;-71
2021/01/12 02:32:03;;;;;;;14.40;7.85;;;;;;;;;;5055483;28;20122;-71
2021/01/12 02:34:30;;;;;;;13.93;7.15;;;;;;;;;;5055219;28;20053;-71
2021/01/12 02:36:56;;;;;;;15.43;8.40;;;;;;;;;;5037616;28;20052;-71
2021/01/12 02:39:22;;;;;;;11.50;7.28;;;;;;;;;;5055330;28;20138;-73
2021/01/12 02:41:48;;;;;;;13.57;8.10;;;;;;;;;;5053484;28;20053;-75
2021/01/12 02:44:22;;;;;;;12.38;7.30;;;;;;;;;;5042642;28;20128;-74
2021/01/12 02:46:49;;;;;;;11.25;6.88;;;;;;;;;;5053869;28;20049;-74
2021/01/12 02:49:15;;;;;;;12.23;7.70;;;;;;;;;;5054064;28;20041;-73
2021/01/12 02:51:44;;;;;;;12.50;6.35;;;;;;;;;;5035365;28;20111;-73
2021/01/12 02:54:11;;;;;;;13.02;7.50;;;;;;;;;;5035306;28;20686;-74
2021/01/12 02:56:37;;;;;;;11.45;6.78;;;;;;;;;;5034827;28;20099;-74
2021/01/12 02:59:03;;;;;;;12.80;7.10;;;;;;;;;;5035225;28;20550;-74
2021/01/12 03:01:29;;;;;;;10.93;7.45;;;;;;;;;;5017480;28;20046;-73
2021/01/12 03:03:55;;;;;;;12.70;7.05;;;;;;;;;;5035108;28;20132;-74
2021/01/12 03:06:24;;;;;;;10.90;6.82;;;;;;;;;;5034839;28;20092;-74
2021/01/12 03:08:50;;;;;;;12.27;6.30;;;;;;;;;;5034955;28;20154;-74
2021/01/12 03:11:16;;;;;;;10.25;6.03;;;;;;;;;;5035152;28;20088;-74
2021/01/12 03:13:42;;;;;;;12.27;6.78;;;;;;;;;;5038823;28;20080;-74
2021/01/12 03:16:09;;;;;;;10.10;5.95;;;;;;;;;;5053298;28;20049;-74
2021/01/12 03:18:35;;;;;;;11.43;6.75;;;;;;;;;;5054582;28;20041;-74
2021/01/12 03:21:01;;;;;;;9.82;6.35;;;;;;;;;;5054744;28;20053;-74
2021/01/12 03:23:27;;;;;;;10.95;6.45;;;;;;;;;;5054576;28;20083;-74
2021/01/12 03:25:53;;;;;;;10.27;6.10;;;;;;;;;;5054375;28;20091;-73
2021/01/12 03:28:19;;;;;;;10.82;6.20;;;;;;;;;;5054491;28;20041;-74
2021/01/12 03:30:45;;;;;;;11.15;6.13;;;;;;;;;;5053040;28;20057;-74
2021/01/12 03:33:11;;;;;;;9.93;5.72;;;;;;;;;;5054432;28;20153;-74
2021/01/12 03:35:37;;;;;;;13.23;6.38;;;;;;;;;;5053924;28;20585;-74
2021/01/12 03:38:03;;;;;;;9.70;6.28;;;;;;;;;;5035380;28;20050;-73
2021/01/12 03:40:29;;;;;;;11.00;5.68;;;;;;;;;;5034188;28;20103;-74
2021/01/12 03:42:55;;;;;;;8.90;5.40;;;;;;;;;;5034471;28;20053;-73
2021/01/12 03:45:22;;;;;;;10.93;5.97;;;;;;;;;;5033849;28;20069;-74
2021/01/12 03:47:48;;;;;;;10.18;5.80;;;;;;;;;;5034166;28;20050;-74
2021/01/12 03:50:15;;;;;;;7.72;5.40;;;;;;;;;;5033835;28;20085;-74
2021/01/12 03:52:41;;;;;;;8.73;5.35;;;;;;;;;;5032954;28;20050;-74
2021/01/12 03:55:07;;;;;;;9.60;5.53;;;;;;;;;;5033908;28;20046;-74
2021/01/12 03:57:33;;;;;;;11.63;6.00;;;;;;;;;;5033646;28;20054;-74
2021/01/12 03:59:59;;;;;;;7.63;4.72;;;;;;;;;;5033732;28;20100;-73
2021/01/12 04:02:25;;;;;;;8.48;5.20;;;;;;;;;;5033945;28;20053;-74
2021/01/12 04:04:53;;;;;;;9.20;5.38;;;;;;;;;;5034008;28;20054;-75
2021/01/12 04:07:19;;;;;;;9.57;4.85;;;;;;;;;;5045160;28;20077;-74
2021/01/12 04:09:45;;;;;;;9.77;4.90;;;;;;;;;;5053726;28;20510;-74
2021/01/12 04:12:11;;;;;;;9.25;5.03;;;;;;;;;;5053610;28;20518;-74
2021/01/12 04:14:37;;;;;;;7.20;4.57;;;;;;;;;;5053442;28;20508;-74
2021/01/12 04:17:03;;;;;;;9.13;4.78;;;;;;;;;;5044452;28;20081;-74
2021/01/12 04:19:29;;;;;;;9.32;5.60;;;;;;;;;;5041819;28;20131;-74
2021/01/12 04:21:55;;;;;;;8.77;5.15;;;;;;;;;;5053547;28;20099;-74
2021/01/12 04:24:21;;;;;;;10.23;4.82;;;;;;;;;;5053263;28;20048;-74
2021/01/12 04:26:47;;;;;;;8.23;4.72;;;;;;;;;;5049184;28;20099;-74
2021/01/12 04:29:13;;;;;;;8.68;5.13;;;;;;;;;;5053283;28;20083;-75
2021/01/12 04:31:39;;;;;;;9.60;4.30;;;;;;;;;;5053045;28;20147;-74
2021/01/12 04:34:06;;;;;;;7.63;4.53;;;;;;;;;;5057118;28;20102;-74
2021/01/12 04:36:32;;;;;;;8.48;4.90;;;;;;;;;;5054396;28;20507;-74
2021/01/12 04:38:58;;;;;;;8.45;5.07;;;;;;;;;;5053072;28;20049;-74
2021/01/12 04:41:24;;;;;;;9.73;6.15;;;;;;;;;;5051819;28;20549;-74
2021/01/12 04:43:50;;;;;;;8.15;4.60;;;;;;;;;;5053161;28;20044;-74
2021/01/12 04:46:16;;;;;;;7.53;4.43;;;;;;;;;;5052761;28;20094;-74
2021/01/12 04:48:43;;;;;;;7.50;4.47;;;;;;;;;;5051848;28;20131;-73
2021/01/12 04:51:09;;;;;;;7.20;4.32;;;;;;;;;;5051799;28;20115;-74
2021/01/12 04:53:48;;;;;;;7.38;4.28;;;;;;;;;;5074950;22;20044;-75
2021/01/12 04:56:14;;;;;;;7.50;4.75;;;;;;;;;;5051572;28;20057;-74
2021/01/12 04:58:45;;;;;;;6.75;4.47;;;;;;;;;;5052669;28;20083;-75
2021/01/12 05:01:15;;;;;;;8.40;4.43;;;;;;;;;;5051564;28;20103;-75
2021/01/12 05:03:49;;;;;;;8.57;5.22;;;;;;;;;;5051463;28;20048;-74
2021/01/12 05:06:22;;;;;;;6.68;4.38;;;;;;;;;;5051350;28;20045;-74
2021/01/12 05:08:56;;;;;;;7.72;4.72;;;;;;;;;;5035840;28;20052;-75
2021/01/12 05:11:25;;;;;;;8.90;5.30;;;;;;;;;;5051492;28;20071;-74
2021/01/12 05:14:09;;;;;;;9.63;5.68;;;;;;;;;;5018805;28;20084;-74
2021/01/12 05:16:51;;;;;;;;;;;;;;;;;;5051436;28;20045;-74
2021/01/12 05:19:21;;;;;;;7.97;5.45;;;;;;;;;;5051186;28;19921;-71
2021/01/12 05:21:48;;;;;;;10.20;5.47;;;;;;;;;;5034494;28;20053;-72
2021/01/12 05:24:19;;;;;;;9.15;5.50;;;;;;;;;;5051012;28;20487;-72
2021/01/12 05:26:45;;;;;;;7.68;5.15;;;;;;;;;;5034481;28;20102;-72
2021/01/12 05:29:11;;;;;;;8.05;5.13;;;;;;;;;;5052144;28;20499;-72
2021/01/12 05:31:37;;;;;;;8.50;5.25;;;;;;;;;;5051064;28;20053;-71
2021/01/12 05:34:07;;;;;;;10.45;5.68;;;;;;;;;;5051004;28;20128;-72
2021/01/12 05:36:48;;;;;;;11.27;5.85;;;;;;;;;;5051951;28;20079;-72
2021/01/12 05:39:19;;;;;;;9.43;5.55;;;;;;;;;;5036279;28;20542;-72
2021/01/12 05:41:46;;;;;;;9.85;5.90;;;;;;;;;;5034470;28;20415;-72
2021/01/12 05:44:18;;;;;;;8.25;5.28;;;;;;;;;;5050832;28;20057;-71
2021/01/12 05:46:45;;;;;;;8.75;5.85;;;;;;;;;;5034195;28;20537;-72
2021/01/12 05:49:12;;;;;;;10.27;5.78;;;;;;;;;;5050716;28;20397;-72
2021/01/12 05:51:43;;;;;;;8.60;5.45;;;;;;;;;;5034203;28;20099;-72
2021/01/12 05:54:26;;;;;;;8.50;5.18;;;;;;;;;;5050538;28;20115;-72
2021/01/12 05:56:59;;;;;;;8.80;5.18;;;;;;;;;;5031917;28;20087;-71
2021/01/12 05:59:26;;;;;;;;;;;;;;;;;;5031191;28;20046;-71
2021/01/12 06:01:54;;;;;;;9.82;5.07;;;;;;;;;;5045786;28;19974;-72
2021/01/12 06:04:20;;;;;;;8.00;4.97;;;;;;;;;;5051800;28;20084;-72
2021/01/12 06:06:49;;;;;;;8.43;4.88;;;;;;;;;;5050391;28;20466;-72
2021/01/12 06:09:16;;;;;;;10.85;6.05;;;;;;;;;;5051682;28;20055;-71
2021/01/12 06:11:46;;;;;;;7.53;4.90;;;;;;;;;;5050564;28;20106;-71
2021/01/12 06:14:14;;;;;;;6.95;4.43;;;;;;;;;;5034428;28;20099;-72
2021/01/12 06:16:41;;;;;;;9.15;5.25;;;;;;;;;;5049493;28;20339;-72
2021/01/12 06:19:21;;;;;;;9.07;4.80;;;;;;;;;;5034070;28;20084;-72
2021/01/12 06:22:10;;;;;;;6.18;4.10;;;;;;;;;;5050385;28;20053;-71
2021/01/12 06:24:40;;;;;;;8.63;5.25;;;;;;;;;;5034686;28;20053;-72
2021/01/12 06:27:07;;;;;;;7.38;4.47;;;;;;;;;;5051406;28;20110;-72
2021/01/12 06:29:34;;;;;;;6.78;4.57;;;;;;;;;;5050102;28;20072;-72
2021/01/12 06:32:00;;;;;;;8.02;4.43;;;;;;;;;;5050421;28;20533;-72
2021/01/12 06:34:28;;;;;;;8.32;4.07;;;;;;;;;;5017418;28;20056;-72
2021/01/12 06:36:56;;;;;;;7.22;4.13;;;;;;;;;;5033356;28;20091;-72
2021/01/12 06:39:35;;;;;;;6.82;4.30;;;;;;;;;;5033839;28;20095;-72
2021/01/12 06:42:03;;;;;;;11.38;4.60;;;;;;;;;;5044567;28;20057;-72
2021/01/12 06:44:29;;;;;;;10.02;4.50;;;;;;;;;;5033332;28;20132;-72
2021/01/12 06:46:56;;;;;;;8.80;4.60;;;;;;;;;;5013748;28;20053;-72
2021/01/12 06:49:27;;;;;;;6.85;4.90;;;;;;;;;;5013699;28;20045;-72
2021/01/12 06:52:07;;;;;;;9.00;4.53;;;;;;;;;;5016283;28;20397;-71
2021/01/12 06:54:40;;;;;;;7.05;5.00;;;;;;;;;;5034753;28;20102;-72
2021/01/12 06:57:07;;;;;;;7.45;4.68;;;;;;;;;;5049930;28;20049;-71
2021/01/12 06:59:35;;;;;;;7.35;4.38;;;;;;;;;;5033595;28;20076;-72
2021/01/12 07:02:09;;;;;;;8.25;4.50;;;;;;;;;;5032068;28;20050;-72
2021/01/12 07:04:35;;;;;;;9.35;4.53;;;;;;;;;;5049927;28;20107;-72
2021/01/12 07:07:01;;;;;;;8.77;5.38;;;;;;;;;;5050963;28;20049;-72
2021/01/12 07:09:29;;;;;;;8.32;5.10;;;;;;;;;;5033424;28;20056;-71
2021/01/12 07:12:05;;;;;;;7.03;4.65;;;;;;;;;;5033994;28;20416;-72
2021/01/12 07:14:32;;;;;;;6.28;4.20;;;;;;;;;;5054707;28;20049;-72
2021/01/12 07:17:06;;;;;;;7.35;4.68;;;;;;;;;;5037484;28;20049;-72
2021/01/12 07:19:35;;;;;;;6.82;4.75;;;;;;;;;;5037088;28;20056;-71
2021/01/12 07:22:20;;;;;;;8.52;5.07;;;;;;;;;;5036259;28;20090;-72
2021/01/12 07:24:46;;;;;;;6.43;4.28;;;;;;;;;;5036862;28;20483;-72
2021/01/12 07:27:13;;;;;;;5.85;4.00;;;;;;;;;;5036614;28;20056;-69
2021/01/12 07:29:50;;;;;;;10.73;4.90;;;;;;;;;;5053370;28;20045;-72
2021/01/12 07:32:37;;;;;;;7.72;4.35;;;;;;;;;;5036769;28;20462;-72
2021/01/12 07:35:09;;;;;;;8.30;4.53;;;;;;;;;;5053050;28;20048;-72
2021/01/12 07:37:42;;;;;;;8.77;5.50;;;;;;;;;;5052983;28;20049;-72
2021/01/12 07:40:09;;;;;;;;;;;;;;;;;;5037428;28;20049;-72
2021/01/12 07:42:44;;;;;;;9.05;4.53;;;;;;;;;;5052806;28;19944;-72
2021/01/12 07:45:11;;;;;;;6.70;3.95;;;;;;;;;;5036439;28;20103;-72
2021/01/12 07:47:37;;;;;;;6.78;4.03;;;;;;;;;;5050679;28;20053;-72
2021/01/12 07:50:03;;;;;;;7.53;3.65;;;;;;;;;;5050692;28;20041;-71
2021/01/12 07:52:30;;;;;;;7.70;4.45;;;;;;;;;;5034203;28;20059;-71
2021/01/12 07:54:56;;;;;;;7.35;4.03;;;;;;;;;;5052190;28;20053;-71
2021/01/12 07:57:22;;;;;;;7.97;4.20;;;;;;;;;;5051781;28;20581;-71
2021/01/12 07:59:48;;;;;;;6.30;4.07;;;;;;;;;;5033853;28;20458;-72
2021/01/12 08:02:14;;;;;;;7.10;3.95;;;;;;;;;;5036468;28;20049;-71
2021/01/12 08:04:40;;;;;;;5.55;4.18;;;;;;;;;;5040843;28;20053;-71
2021/01/12 08:07:07;;;;;;;6.53;4.03;;;;;;;;;;5030738;28;20587;-71
2021/01/12 08:09:34;;;;;;;6.63;3.70;;;;;;;;;;5027640;28;20416;-71
2021/01/12 08:12:02;;;;;;;6.97;4.38;;;;;;;;;;5029909;28;20053;-71
2021/01/12 08:14:28;;;;;;;6.32;4.38;;;;;;;;;;5030341;28;20520;-71
2021/01/12 08:16:55;;;;;;;6.03;4.00;;;;;;;;;;5047153;28;20106;-71
2021/01/12 08:19:25;;;;;;;6.82;3.83;;;;;;;;;;5030286;28;20508;-71
2021/01/12 08:21:52;;;;;;;7.05;4.00;;;;;;;;;;5030842;28;20049;-70
2021/01/12 08:24:20;;;;;;;6.32;4.22;;;;;;;;;;5029748;28;20045;-70
2021/01/12 08:26:46;;;;;;;6.25;3.92;;;;;;;;;;5035542;28;20049;-71
2021/01/12 08:29:13;;;;;;;7.70;3.92;;;;;;;;;;5039076;28;20049;-70
2021/01/12 08:32:07;;;;;;;6.35;3.75;;;;;;;;;;5040373;28;20084;-71
2021/01/12 08:34:49;;;;;;;5.90;3.67;;;;;;;;;;5041399;28;20107;-71
2021/01/12 08:37:15;;;;;;;6.57;4.05;;;;;;;;;;4972903;28;24800;-71
2021/01/12 08:39:43;;;;;;;6.35;3.97;;;;;;;;;;5034562;28;20065;-71
2021/01/12 08:42:09;;;;;;;7.18;3.25;;;;;;;;;;5024234;28;20048;-71
2021/01/12 08:44:40;;;;;;;5.57;3.45;;;;;;;;;;5005101;28;20128;-71
2021/01/12 08:47:06;;;;;;;6.57;3.65;;;;;;;;;;5038464;28;20053;-71
2021/01/12 08:49:33;;;;;;;7.63;3.60;;;;;;;;;;5021501;28;20046;-71
2021/01/12 08:52:01;;;;;;;6.18;3.42;;;;;;;;;;5037592;28;20053;-72
2021/01/12 08:54:28;;;;;;;4.38;3.05;;;;;;;;;;5026356;28;20068;-69
2021/01/12 08:57:04;;;;;;;5.22;3.15;;;;;;;;;;5045043;28;20057;-69
2021/01/12 08:59:34;;;;;;;5.28;2.88;;;;;;;;;;5031510;28;20040;-71
2021/01/12 09:02:01;;;;;;;5.25;2.88;;;;;;;;;;5026110;28;20467;-71
2021/01/12 09:04:28;;;;;;;4.50;3.38;;;;;;;;;;5031992;28;20049;-71
2021/01/12 09:07:02;;;;;;;3.47;2.33;;;;;;;;;;5027508;28;20040;-70
2021/01/12 09:09:29;;;;;;;4.35;2.60;;;;;;;;;;5047651;28;20041;-70
2021/01/12 09:12:05;;;;;;;3.90;2.40;;;;;;;;;;5048959;28;20041;-71
2021/01/12 09:14:31;;;;;;;5.63;2.58;;;;;;;;;;5049533;28;20053;-70
2021/01/12 09:17:02;;;;;;;3.47;2.17;;;;;;;;;;5043862;28;20049;-70
2021/01/12 09:19:36;;;;;;;4.07;1.88;;;;;;;;;;5044576;28;20078;-71
2021/01/12 09:22:18;;;;;;;3.72;2.35;;;;;;;;;;5047587;28;20049;-70
2021/01/12 09:24:53;;;;;;;3.38;2.33;;;;;;;;;;5048006;28;20048;-69
2021/01/12 09:27:28;;;;;;;3.78;2.40;;;;;;;;;;5042630;28;20099;-70
2021/01/12 09:29:54;;;;;;;4.18;2.95;;;;;;;;;;5011021;28;20117;-70
2021/01/12 09:32:24;;;;;;;3.67;2.08;;;;;;;;;;5028894;28;20042;-71
2021/01/12 09:34:51;;;;;;;4.68;2.80;;;;;;;;;;5028197;28;20439;-70
2021/01/12 09:37:17;;;;;;;3.00;2.28;;;;;;;;;;5017094;28;20120;-70
2021/01/12 09:39:45;;;;;;;3.45;2.30;;;;;;;;;;5032331;28;20573;-70
2021/01/12 09:42:12;;;;;;;3.28;2.38;;;;;;;;;;5032205;28;20485;-70
2021/01/12 09:44:38;;;;;;;2.45;2.15;;;;;;;;;;5026215;28;20111;-70
2021/01/12 09:47:04;;;;;;;3.20;2.03;;;;;;;;;;5027963;28;20100;-74
2021/01/12 09:49:30;;;;;;;4.93;2.88;;;;;;;;;;5048011;28;20040;-71
2021/01/12 09:51:56;;;;;;;7.32;3.53;;;;;;;;;;5048026;28;20049;-71
2021/01/12 09:54:22;;;;;;;4.07;2.17;;;;;;;;;;5047215;28;20124;-71
2021/01/12 09:56:48;;;;;;;2.63;1.60;;;;;;;;;;5046951;28;20412;-71
2021/01/12 09:59:50;;;;;;;2.47;1.88;;;;;;;;;;5046949;28;20128;-75
2021/01/12 10:02:16;;;;;;;2.95;2.22;;;;;;;;;;5006545;28;20053;-72
2021/01/12 10:04:44;;;;;;;2.25;1.70;;;;;;;;;;5022330;28;20060;-69
2021/01/12 10:07:10;;;;;;;2.20;1.63;;;;;;;;;;5048486;28;20557;-71
2021/01/12 10:09:37;;;;;;;2.42;1.67;;;;;;;;;;5047254;28;20098;-70
2021/01/12 10:12:04;;;;;;;3.83;1.83;;;;;;;;;;5048073;28;20067;-71
2021/01/12 10:14:30;;;;;;;1.73;1.30;;;;;;;;;;5047377;28;20123;-69
2021/01/12 10:16:57;;;;;;;2.63;1.33;;;;;;;;;;5030383;28;20127;-73
2021/01/12 10:19:23;;;;;;;1.92;1.40;;;;;;;;;;5045190;28;20048;-75
2021/01/12 10:21:49;;;;;;;1.13;0.95;;;;;;;;;;5049729;28;20053;-70
2021/01/12 10:24:16;;;;;;;1.48;1.13;;;;;;;;;;5047949;28;20045;-69
2021/01/12 10:26:44;;;;;;;2.53;1.73;;;;;;;;;;5049487;28;20106;-71
2021/01/12 10:29:11;;;;;;;4.22;1.60;;;;;;;;;;5033215;28;20052;-71
2021/01/12 10:31:43;;;;;;;6.40;1.48;;;;;;;;;;5049474;28;20562;-73
2021/01/12 10:34:09;;;;;;;2.07;1.27;;;;;;;;;;5033057;28;20136;-73
2021/01/12 10:36:36;;;;;;;2.13;1.20;;;;;;;;;;5029403;28;20056;-73
2021/01/12 10:39:11;;;;;;;2.50;1.40;;;;;;;;;;5049452;28;20491;-76
2021/01/12 10:41:40;;;;;;;2.88;1.50;;;;;;;;;;5017905;28;20454;-76
2021/01/12 10:44:06;;;;;;;2.40;1.60;;;;;;;;;;5033302;28;20057;-76
2021/01/12 10:46:34;;;;;;;2.33;1.10;;;;;;;;;;5015958;28;20049;-74
2021/01/12 10:49:06;;;;;;;1.60;1.15;;;;;;;;;;5053220;28;20049;-73
2021/01/12 10:51:33;;;;;;;0.98;0.80;;;;;;;;;;5021393;28;20190;-74
2021/01/12 10:54:07;;;;;;;1.25;0.90;;;;;;;;;;5083743;22;20072;-74
2021/01/12 10:56:36;;;;;;;1.35;1.02;;;;;;;;;;5053946;28;20419;-73
2021/01/12 10:59:02;;;;;;;1.85;1.10;;;;;;;;;;5036561;28;20056;-72
2021/01/12 11:01:29;;;;;;;1.75;1.08;;;;;;;;;;5046258;28;20333;-72
2021/01/12 11:03:56;;;;;;;1.75;0.70;;;;;;;;;;5044289;28;20049;-71
2021/01/12 11:06:23;;;;;;;3.00;1.15;;;;;;;;;;5024909;28;20414;-74
2021/01/12 11:08:49;;;;;;;2.60;1.40;;;;;;;;;;5039590;28;20103;-72
2021/01/12 11:11:20;;;;;;;1.30;1.10;;;;;;;;;;5045400;28;20049;-71
2021/01/12 11:13:47;;;;;;;1.70;1.30;;;;;;;;;;5042516;28;20099;-71
2021/01/12 11:16:17;;;;;;;2.00;0.90;;;;;;;;;;5044986;28;20515;-69
2021/01/12 11:18:45;;;;;;;1.90;1.05;;;;;;;;;;5042962;28;20048;-68
2021/01/12 11:21:11;;;;;;;1.45;0.88;;;;;;;;;;5042489;28;20073;-70
2021/01/12 11:23:38;;;;;;;0.73;0.60;;;;;;;;;;5043199;28;20049;-70
2021/01/12 11:26:06;;;;;;;1.20;0.73;;;;;;;;;;5044631;28;20567;-69
2021/01/12 11:28:33;;;;;;;0.77;0.70;;;;;;;;;;5043091;28;20450;-68
2021/01/12 11:31:00;;;;;;;1.42;0.93;;;;;;;;;;5043269;28;20092;-69
2021/01/12 11:33:27;;;;;;;1.10;0.85;;;;;;;;;;5042103;28;20049;-69
2021/01/12 11:35:53;;;;;;;0.88;0.70;;;;;;;;;;5042521;28;20049;-69
2021/01/12 11:38:36;;;;;;;0.90;0.82;;;;;;;;;;5039885;28;20404;-70
2021/01/12 11:41:03;;;;;;;1.50;0.60;;;;;;;;;;5038934;28;20042;-68
2021/01/12 11:43:29;;;;;;;1.70;0.80;;;;;;;;;;5041819;28;20059;-72
2021/01/12 11:45:56;;;;;;;0.52;0.50;;;;;;;;;;5042791;28;20483;-71
2021/01/12 11:48:22;;;;;;;0.98;0.43;;;;;;;;;;5043080;28;20049;-72
2021/01/12 11:50:48;;;;;;;0.40;0.40;;;;;;;;;;5043449;28;20323;-72
2021/01/12 11:53:14;;;;;;;1.08;0.90;;;;;;;;;;5040049;28;20115;-70
2021/01/12 11:55:41;;;;;;;0.65;0.57;;;;;;;;;;5035904;28;20096;-72
2021/01/12 11:58:07;;;;;;;2.78;0.50;;;;;;;;;;4990802;28;20054;-69
2021/01/12 12:00:33;;;;;;;0.47;0.47;;;;;;;;;;4993340;28;20110;-69
2021/01/12 12:02:59;;;;;;;1.40;0.63;;;;;;;;;;4993247;28;20050;-69
2021/01/12 12:05:25;;;;;;;1.85;0.75;;;;;;;;;;4993104;28;20109;-70
2021/01/12 12:07:51;;;;;;;0.50;0.45;;;;;;;;;;4992311;28;20046;-69
2021/01/12 12:10:18;;;;;;;0.80;0.80;;;;;;;;;;4992986;28;20046;-68
2021/01/12 12:12:45;;;;;;;0.40;0.40;;;;;;;;;;4993033;28;20050;-70
2021/01/12 12:15:11;;;;;;;1.60;0.60;;;;;;;;;;4993043;28;20152;-68
2021/01/12 12:17:37;;;;;;;1.35;0.40;;;;;;;;;;4992972;28;20054;-68
2021/01/12 12:20:04;;;;;;;1.25;0.60;;;;;;;;;;4991659;28;20050;-71
2021/01/12 12:22:34;;;;;;;0.65;0.52;;;;;;;;;;4992572;28;20043;-71
2021/01/12 12:25:00;;;;;;;1.20;0.60;;;;;;;;;;4992958;28;20050;-72
2021/01/12 12:27:27;;;;;;;4.57;2.35;;;;;;;;;;4992123;28;20050;-68
2021/01/12 12:29:53;;;;;;;1.05;0.70;;;;;;;;;;4992771;28;20128;-69
2021/01/12 12:32:22;;;;;;;0.40;0.40;;;;;;;;;;4992859;28;20050;-69
2021/01/12 12:34:48;;;;;;;2.80;0.40;;;;;;;;;;4991313;28;20058;-69
2021/01/12 12:37:14;;;;;;;0.38;0.35;;;;;;;;;;4990531;28;20082;-68
2021/01/12 12:39:41;;;;;;;0.75;0.47;;;;;;;;;;4990422;28;20109;-68
2021/01/12 12:42:08;;;;;;;0.82;0.68;;;;;;;;;;4990724;28;20168;-69
2021/01/12 12:44:34;;;;;;;3.78;0.73;;;;;;;;;;4990235;28;20438;-69
2021/01/12 12:47:00;;;;;;;0.68;0.60;;;;;;;;;;4990660;28;20050;-69
2021/01/12 12:49:27;;;;;;;0.93;0.50;;;;;;;;;;4989848;28;20046;-69
2021/01/12 12:51:53;;;;;;;0.75;0.68;;;;;;;;;;4990921;28;20050;-68
2021/01/12 12:54:20;;;;;;;1.13;0.65;;;;;;;;;;4990321;28;20592;-69
2021/01/12 12:56:55;;;;;;;1.20;0.73;;;;;;;;;;4987611;28;20046;-71
2021/01/12 12:59:25;;;;;;;1.10;0.70;;;;;;;;;;4992348;28;20497;-73
2021/01/12 13:01:52;;;;;;;1.73;0.80;;;;;;;;;;4992845;28;20050;-73
2021/01/12 13:04:19;;;;;;;0.95;0.70;;;;;;;;;;4991836;28;20137;-72
2021/01/12 13:06:50;;;;;;;1.42;0.93;;;;;;;;;;4990579;28;20513;-74
2021/01/12 13:09:16;;;;;;;0.65;0.65;;;;;;;;;;4991433;28;20086;-72
2021/01/12 13:11:46;;;;;;;0.85;0.68;;;;;;;;;;4992583;28;20560;-72
2021/01/12 13:14:14;;;;;;;0.93;0.52;;;;;;;;;;4981355;28;20074;-72
2021/01/12 13:16:43;;;;;;;1.50;1.20;;;;;;;;;;4990215;28;20416;-72
2021/01/12 13:19:11;;;;;;;1.85;0.80;;;;;;;;;;4983641;28;20593;-70
2021/01/12 13:21:47;;;;;;;1.05;0.93;;;;;;;;;;4990164;28;20655;-71
2021/01/12 13:24:29;;;;;;;1.90;1.50;;;;;;;;;;4980435;28;20511;-72
2021/01/12 13:26:55;;;;;;;0.52;0.50;;;;;;;;;;5034278;28;20049;-72
2021/01/12 13:29:22;;;;;;;0.32;0.32;;;;;;;;;;5038277;28;20052;-71
2021/01/12 13:31:49;;;;;;;0.80;0.70;;;;;;;;;;5039172;28;20052;-71
2021/01/12 13:34:15;;;;;;;1.92;0.70;;;;;;;;;;5040121;28;20417;-72
2021/01/12 13:36:42;;;;;;;2.22;0.93;;;;;;;;;;5038292;28;20056;-73
2021/01/12 13:39:09;;;;;;;1.08;0.80;;;;;;;;;;5039864;28;20058;-73
2021/01/12 13:41:36;;;;;;;0.65;0.65;;;;;;;;;;5041243;28;20065;-72
2021/01/12 13:44:03;;;;;;;1.95;1.30;;;;;;;;;;5039854;28;20454;-73
2021/01/12 13:46:29;;;;;;;1.60;0.77;;;;;;;;;;5037154;28;20515;-72
2021/01/12 13:48:56;;;;;;;0.85;0.70;;;;;;;;;;5041014;28;20135;-73
2021/01/12 13:51:23;;;;;;;2.17;0.93;;;;;;;;;;5038227;28;20122;-72
2021/01/12 13:53:49;;;;;;;1.40;0.93;;;;;;;;;;5036836;28;20077;-70
2021/01/12 13:56:20;;;;;;;1.48;1.00;;;;;;;;;;5039359;28;20098;-69
2021/01/12 13:58:50;;;;;;;1.52;0.60;;;;;;;;;;5040945;28;20049;-69
2021/01/12 14:01:56;;;;;;;2.20;0.65;;;;;;;;;;5039440;28;20100;-73
2021/01/12 14:04:30;;;;;;;;;;;;;;;;;;5034873;28;20415;-70
2021/01/12 14:06:56;;;;;;;1.10;0.90;;;;;;;;;;5042371;28;20010;-69
2021/01/12 14:09:25;;;;;;;2.10;1.20;;;;;;;;;;5041027;28;20106;-73
2021/01/12 14:11:52;;;;;;;2.95;2.30;;;;;;;;;;5041681;28;20053;-72
2021/01/12 14:14:18;;;;;;;3.72;1.15;;;;;;;;;;5038843;28;20052;-72
2021/01/12 14:16:47;;;;;;;0.95;0.80;;;;;;;;;;5039084;28;20148;-71
2021/01/12 14:19:16;;;;;;;2.83;2.10;;;;;;;;;;5022815;28;20421;-71
2021/01/12 14:21:46;;;;;;;2.50;1.50;;;;;;;;;;5042310;28;20101;-71
2021/01/12 14:24:13;;;;;;;1.30;1.00;;;;;;;;;;5049102;28;20053;-72
2021/01/12 14:26:46;;;;;;;1.27;1.05;;;;;;;;;;5045117;28;20082;-71
2021/01/12 14:29:12;;;;;;;0.93;0.80;;;;;;;;;;5043505;28;20044;-72
2021/01/12 14:31:39;;;;;;;2.08;1.20;;;;;;;;;;5047352;28;20049;-72
2021/01/12 14:34:05;;;;;;;1.13;1.00;;;;;;;;;;5042452;28;20053;-72
2021/01/12 14:36:35;;;;;;;1.63;0.90;;;;;;;;;;5046515;28;20046;-72
2021/01/12 14:39:07;;;;;;;1.40;0.77;;;;;;;;;;5033816;28;20048;-72
2021/01/12 14:41:34;;;;;;;1.13;0.90;;;;;;;;;;5063432;28;20041;-71
2021/01/12 14:44:03;;;;;;;1.10;0.77;;;;;;;;;;5046110;28;20061;-72
2021/01/12 14:46:29;;;;;;;2.97;1.38;;;;;;;;;;5043607;28;20056;-71